Time;durP1;ratioP1;P1;durP2;ratioP2;P2;SDS_P1;SDS_P2;PMS_P1;PMS_P2;Temp;Humidity;BMP_temperature;BMP_pressure;BME280_temperature;BME280_humidity;BME280_pressure;Samples;Min_cycle;Max_cycle;Signal;HPM_P1;HPM_P2
2023/07/27 00:01:25;;;;;;;16.70;15.60;;;9.60;95.00;;;;;;5106078;28;20590;-73
2023/07/27 00:03:51;;;;;;;15.90;14.90;;;9.70;95.10;;;;;;5107057;28;20563;-74
2023/07/27 00:06:16;;;;;;;16.10;14.80;;;9.70;95.00;;;;;;5106935;28;20103;-73
2023/07/27 00:08:42;;;;;;;15.90;14.95;;;9.70;94.90;;;;;;5107944;28;20027;-73
2023/07/27 00:11:08;;;;;;;15.55;14.35;;;9.60;94.90;;;;;;5107926;28;20398;-74
2023/07/27 00:13:34;;;;;;;16.05;14.82;;;9.70;94.90;;;;;;5101257;28;20050;-74
2023/07/27 00:15:59;;;;;;;16.02;15.15;;;9.70;94.90;;;;;;5100399;28;20424;-73
2023/07/27 00:18:25;;;;;;;16.25;14.95;;;9.80;94.80;;;;;;5111636;28;20043;-73
2023/07/27 00:20:51;;;;;;;15.25;14.45;;;9.80;94.80;;;;;;5119438;28;20110;-74
2023/07/27 00:23:17;;;;;;;15.45;14.55;;;9.90;94.70;;;;;;5112046;28;20676;-74
2023/07/27 00:25:42;;;;;;;15.73;14.63;;;10.00;94.50;;;;;;5105295;28;20024;-72
2023/07/27 00:28:08;;;;;;;15.82;14.93;;;10.10;94.40;;;;;;5089446;28;20071;-73
2023/07/27 00:30:33;;;;;;;14.93;14.05;;;10.10;94.30;;;;;;5106662;28;20040;-74
2023/07/27 00:32:59;;;;;;;14.80;13.75;;;10.10;94.10;;;;;;5089480;28;20030;-73
2023/07/27 00:35:25;;;;;;;15.43;14.43;;;10.10;93.90;;;;;;5107612;28;20461;-73
2023/07/27 00:37:50;;;;;;;14.52;13.60;;;10.10;93.90;;;;;;5107218;28;20046;-74
2023/07/27 00:40:17;;;;;;;13.88;13.07;;;10.20;93.80;;;;;;5103048;28;20024;-74
2023/07/27 00:42:43;;;;;;;15.27;14.23;;;10.20;93.60;;;;;;5102524;28;20023;-73
2023/07/27 00:45:09;;;;;;;14.68;13.57;;;10.20;93.80;;;;;;5102250;28;20039;-73
2023/07/27 00:47:35;;;;;;;15.23;14.27;;;10.20;93.80;;;;;;5110071;28;20031;-73
2023/07/27 00:50:01;;;;;;;18.85;17.65;;;10.20;93.50;;;;;;5089518;28;20116;-73
2023/07/27 00:52:26;;;;;;;14.75;13.75;;;10.30;93.40;;;;;;5106837;28;20043;-73
2023/07/27 00:54:55;;;;;;;15.48;14.52;;;10.30;93.40;;;;;;5107368;28;20133;-73
2023/07/27 00:57:21;;;;;;;14.32;13.52;;;10.20;93.70;;;;;;5109697;28;20414;-74
2023/07/27 00:59:47;;;;;;;14.40;13.50;;;10.30;93.60;;;;;;5110688;28;20061;-73
2023/07/27 01:02:13;;;;;;;14.85;13.88;;;10.30;93.40;;;;;;5109774;28;20119;-74
2023/07/27 01:04:39;;;;;;;14.68;13.77;;;10.30;93.40;;;;;;5109557;28;20073;-73
2023/07/27 01:07:05;;;;;;;14.93;14.02;;;10.30;93.60;;;;;;5108911;28;20043;-74
2023/07/27 01:09:31;;;;;;;17.02;16.02;;;10.20;93.00;;;;;;5109751;28;20111;-73
2023/07/27 01:11:56;;;;;;;14.60;13.70;;;10.20;93.10;;;;;;5091080;28;20027;-73
2023/07/27 01:14:35;;;;;;;16.58;14.10;;;10.10;93.20;;;;;;5107991;28;20566;-73
2023/07/27 01:17:21;;;;;;;14.63;13.50;;;10.20;93.20;;;;;;5107819;28;20476;-73
2023/07/27 01:20:02;;;;;;;21.85;20.63;;;10.20;93.30;;;;;;5110015;28;20023;-73
2023/07/27 01:22:30;;;;;;;14.23;13.38;;;10.10;93.20;;;;;;5110176;28;20080;-73
2023/07/27 01:24:56;;;;;;;14.43;13.45;;;10.10;93.50;;;;;;5109575;28;20036;-73
2023/07/27 01:27:49;;;;;;;15.05;14.15;;;10.00;93.30;;;;;;5109672;28;20023;-72
2023/07/27 01:30:27;;;;;;;16.40;15.40;;;9.90;93.60;;;;;;5087174;28;20549;-73
2023/07/27 01:33:00;;;;;;;15.10;14.00;;;9.90;93.90;;;;;;5108837;28;20024;-73
2023/07/27 01:35:33;;;;;;;14.90;13.88;;;9.80;93.80;;;;;;5109308;28;20747;-73
2023/07/27 01:38:01;;;;;;;14.98;13.98;;;9.70;94.00;;;;;;5110803;28;20043;-73
2023/07/27 01:40:29;;;;;;;14.55;13.70;;;9.70;94.00;;;;;;5109614;28;20027;-73
2023/07/27 01:42:55;;;;;;;16.02;14.93;;;9.60;94.10;;;;;;5108729;28;20024;-74
2023/07/27 01:45:22;;;;;;;17.15;16.13;;;9.60;94.40;;;;;;5108063;28;20028;-74
2023/07/27 01:47:49;;;;;;;16.35;15.18;;;9.60;94.20;;;;;;5106996;28;20035;-74
2023/07/27 01:50:16;;;;;;;15.85;14.88;;;9.60;94.50;;;;;;5106615;27;20545;-73
2023/07/27 01:52:44;;;;;;;15.70;14.73;;;9.60;94.60;;;;;;5103952;28;20447;-73
2023/07/27 01:55:11;;;;;;;15.23;14.32;;;9.50;94.60;;;;;;5108531;28;20031;-74
2023/07/27 01:57:37;;;;;;;14.43;13.57;;;9.60;94.40;;;;;;5108492;28;20089;-73
2023/07/27 02:00:05;;;;;;;14.50;13.63;;;9.50;94.40;;;;;;5102647;28;20035;-73
2023/07/27 02:02:31;;;;;;;15.15;14.25;;;9.50;94.50;;;;;;5101780;28;20036;-73
2023/07/27 02:04:57;;;;;;;15.32;14.30;;;9.50;94.60;;;;;;5104877;28;20038;-73
2023/07/27 02:07:23;;;;;;;14.75;13.93;;;9.50;94.50;;;;;;5102429;28;20039;-73
2023/07/27 02:09:49;;;;;;;15.85;14.82;;;9.50;94.50;;;;;;5106638;28;20036;-73
2023/07/27 02:12:39;;;;;;;16.10;15.07;;;9.40;94.50;;;;;;5101107;28;20062;-73
2023/07/27 02:15:10;;;;;;;16.20;15.30;;;9.40;94.70;;;;;;5104155;28;20516;-73
2023/07/27 02:17:45;;;;;;;16.40;15.32;;;9.40;95.10;;;;;;5106212;28;20051;-74
2023/07/27 02:20:12;;;;;;;15.02;14.13;;;9.40;95.00;;;;;;5101581;28;20047;-73
2023/07/27 02:22:40;;;;;;;16.73;15.65;;;9.40;94.90;;;;;;5103872;28;20045;-72
2023/07/27 02:25:07;;;;;;;15.50;14.60;;;9.40;95.00;;;;;;5107778;28;20044;-75
2023/07/27 02:27:33;;;;;;;16.23;15.23;;;9.30;94.90;;;;;;5105926;28;20057;-72
2023/07/27 02:30:00;;;;;;;16.88;15.73;;;9.30;94.90;;;;;;5104426;28;20031;-73
2023/07/27 02:32:26;;;;;;;17.77;16.77;;;9.30;94.80;;;;;;5105469;28;20038;-74
2023/07/27 02:34:51;;;;;;;15.82;14.88;;;9.30;95.20;;;;;;5105575;28;20028;-73
2023/07/27 02:37:17;;;;;;;17.33;16.05;;;9.30;95.10;;;;;;5105356;28;20028;-74
2023/07/27 02:39:43;;;;;;;17.38;16.27;;;9.30;95.20;;;;;;5107795;28;20533;-73
2023/07/27 02:42:08;;;;;;;18.80;17.65;;;9.20;95.20;;;;;;5105511;28;20036;-74
2023/07/27 02:44:34;;;;;;;17.58;16.58;;;9.20;95.30;;;;;;5102541;28;20028;-73
2023/07/27 02:46:59;;;;;;;17.25;16.08;;;9.20;95.40;;;;;;5105506;28;20027;-72
2023/07/27 02:49:25;;;;;;;16.88;15.95;;;9.10;95.30;;;;;;5107102;28;20489;-74
2023/07/27 02:51:51;;;;;;;16.63;15.73;;;9.10;95.30;;;;;;5106788;28;20032;-73
2023/07/27 02:54:16;;;;;;;17.70;16.73;;;9.20;95.60;;;;;;5103333;28;20038;-73
2023/07/27 02:56:42;;;;;;;16.05;15.15;;;9.30;95.60;;;;;;5106013;28;20507;-74
2023/07/27 02:59:07;;;;;;;15.07;14.27;;;9.30;95.30;;;;;;5109871;28;20524;-74
2023/07/27 03:01:33;;;;;;;16.63;15.35;;;9.30;95.10;;;;;;5107275;28;20122;-73
2023/07/27 03:03:59;;;;;;;15.70;14.80;;;9.30;95.20;;;;;;5107697;28;20092;-74
2023/07/27 03:06:24;;;;;;;15.30;14.45;;;9.30;95.30;;;;;;5106587;28;20115;-74
2023/07/27 03:08:50;;;;;;;16.10;15.20;;;9.30;95.10;;;;;;5111974;28;20127;-73
2023/07/27 03:11:16;;;;;;;16.67;15.77;;;9.30;95.10;;;;;;5107951;28;20036;-74
2023/07/27 03:13:42;;;;;;;16.50;15.57;;;9.30;95.00;;;;;;5107608;28;20092;-73
2023/07/27 03:16:07;;;;;;;15.57;14.50;;;9.30;95.10;;;;;;5108611;28;20032;-74
2023/07/27 03:18:33;;;;;;;15.52;14.73;;;9.30;95.00;;;;;;5090580;28;20039;-74
2023/07/27 03:21:05;;;;;;;16.48;15.48;;;9.40;95.00;;;;;;5106069;28;20066;-75
2023/07/27 03:23:33;;;;;;;17.02;15.82;;;9.40;95.00;;;;;;5108373;28;20027;-74
2023/07/27 03:25:58;;;;;;;16.98;15.90;;;9.50;95.10;;;;;;5103996;28;20039;-74
2023/07/27 03:28:24;;;;;;;16.10;14.85;;;9.50;94.70;;;;;;5101840;28;20044;-74
2023/07/27 03:30:50;;;;;;;16.00;15.10;;;9.50;94.60;;;;;;5106601;28;20035;-74
2023/07/27 03:33:15;;;;;;;15.65;14.65;;;9.50;94.50;;;;;;5101829;28;20130;-74
2023/07/27 03:35:41;;;;;;;16.23;15.32;;;9.50;94.30;;;;;;5107130;28;20059;-74
2023/07/27 03:38:07;;;;;;;16.05;15.02;;;9.60;94.70;;;;;;5106913;28;20513;-73
2023/07/27 03:40:33;;;;;;;15.00;14.20;;;9.70;94.40;;;;;;5110355;28;20042;-74
2023/07/27 03:42:59;;;;;;;14.73;13.93;;;9.60;94.40;;;;;;5108059;28;20206;-73
2023/07/27 03:45:24;;;;;;;15.50;14.57;;;9.70;94.20;;;;;;5107888;28;20544;-75
2023/07/27 03:47:50;;;;;;;15.48;14.48;;;9.80;93.90;;;;;;5106860;28;20513;-73
2023/07/27 03:50:16;;;;;;;14.93;14.02;;;9.80;93.80;;;;;;5110156;28;20036;-73
2023/07/27 03:52:41;;;;;;;15.38;14.38;;;9.80;93.50;;;;;;5092770;28;20034;-74
2023/07/27 03:55:07;;;;;;;14.88;13.88;;;9.90;93.60;;;;;;5107759;28;20047;-74
2023/07/27 03:57:33;;;;;;;14.73;13.88;;;9.90;93.40;;;;;;5105022;28;20490;-73
2023/07/27 04:00:00;;;;;;;15.38;14.48;;;9.90;93.30;;;;;;5106913;28;20442;-73
2023/07/27 04:02:27;;;;;;;14.90;13.93;;;9.90;92.90;;;;;;5108487;28;20112;-73
2023/07/27 04:04:54;;;;;;;14.82;13.90;;;9.90;93.10;;;;;;5100911;28;20039;-74
2023/07/27 04:07:20;;;;;;;14.73;13.82;;;10.00;93.10;;;;;;5108789;28;20042;-73
2023/07/27 04:09:46;;;;;;;15.10;14.00;;;10.00;93.10;;;;;;5110205;28;20032;-73
2023/07/27 04:12:12;;;;;;;15.32;14.43;;;10.10;92.90;;;;;;5108885;28;20034;-73
2023/07/27 04:14:38;;;;;;;14.80;13.88;;;10.10;92.70;;;;;;5107077;28;20036;-73
2023/07/27 04:17:05;;;;;;;15.05;14.05;;;10.20;92.60;;;;;;5104889;28;20062;-73
2023/07/27 04:19:30;;;;;;;14.95;14.05;;;10.30;92.40;;;;;;5107263;28;20096;-74
2023/07/27 04:21:56;;;;;;;15.40;14.15;;;10.30;92.50;;;;;;5091945;28;20036;-73
2023/07/27 04:24:22;;;;;;;14.18;13.38;;;10.20;92.30;;;;;;5108231;28;20025;-73
2023/07/27 04:26:49;;;;;;;15.65;14.38;;;10.30;92.50;;;;;;5109993;28;20032;-73
2023/07/27 04:29:15;;;;;;;15.27;14.02;;;10.40;92.30;;;;;;5108647;28;20024;-74
2023/07/27 04:31:41;;;;;;;15.35;14.32;;;10.40;92.00;;;;;;5089610;28;20439;-73
2023/07/27 04:34:06;;;;;;;18.30;16.85;;;10.50;92.00;;;;;;5106484;28;20084;-72
2023/07/27 04:36:32;;;;;;;19.42;17.50;;;10.50;92.10;;;;;;5109807;28;20050;-74
2023/07/27 04:38:57;;;;;;;15.77;14.45;;;10.50;92.30;;;;;;5105812;27;20036;-74
2023/07/27 04:41:23;;;;;;;14.55;13.65;;;10.50;91.70;;;;;;5109639;28;20027;-74
2023/07/27 04:43:49;;;;;;;15.23;14.05;;;10.60;91.80;;;;;;5108206;28;20024;-73
2023/07/27 04:46:15;;;;;;;14.63;13.75;;;10.60;91.60;;;;;;5110272;27;20053;-74
2023/07/27 04:48:40;;;;;;;15.27;14.15;;;10.60;91.40;;;;;;5104952;28;20104;-73
2023/07/27 04:51:06;;;;;;;14.77;13.60;;;10.60;91.40;;;;;;5109067;28;20049;-74
2023/07/27 04:53:32;;;;;;;15.75;14.65;;;10.60;91.70;;;;;;5110550;28;20039;-74
2023/07/27 04:55:57;;;;;;;15.80;14.25;;;10.70;91.80;;;;;;5108624;28;20055;-74
2023/07/27 04:58:23;;;;;;;15.90;14.55;;;10.70;91.80;;;;;;5088962;28;20031;-74
2023/07/27 05:00:53;;;;;;;15.30;14.23;;;10.80;91.60;;;;;;5109285;28;20048;-72
2023/07/27 05:03:19;;;;;;;16.33;15.27;;;10.90;91.70;;;;;;5104245;27;20400;-74
2023/07/27 05:05:45;;;;;;;16.23;15.13;;;11.10;91.30;;;;;;5106525;27;20040;-73
2023/07/27 05:08:10;;;;;;;15.82;14.20;;;11.20;90.70;;;;;;5087654;28;20122;-74
2023/07/27 05:10:39;;;;;;;15.60;14.18;;;11.20;91.20;;;;;;5102020;28;20058;-74
2023/07/27 05:13:05;;;;;;;15.55;14.35;;;11.20;90.90;;;;;;5108557;28;20054;-74
2023/07/27 05:15:31;;;;;;;16.77;14.68;;;11.30;90.70;;;;;;5105446;28;20035;-74
2023/07/27 05:17:57;;;;;;;15.93;14.50;;;11.40;91.20;;;;;;5101693;28;20038;-73
2023/07/27 05:20:22;;;;;;;15.35;14.10;;;11.50;90.40;;;;;;5104018;28;20035;-72
2023/07/27 05:22:48;;;;;;;17.08;15.52;;;11.60;90.10;;;;;;5106334;28;20782;-72
2023/07/27 05:25:14;;;;;;;14.80;13.50;;;11.70;89.20;;;;;;5090674;28;20815;-74
2023/07/27 05:27:40;;;;;;;17.48;14.43;;;11.70;89.30;;;;;;5107656;28;20036;-73
2023/07/27 05:30:06;;;;;;;16.98;15.23;;;11.80;90.10;;;;;;5101078;28;20537;-74
2023/07/27 05:32:32;;;;;;;15.93;14.48;;;11.80;88.70;;;;;;5090255;28;20036;-72
2023/07/27 05:34:57;;;;;;;21.50;14.55;;;11.90;90.20;;;;;;5108025;28;20031;-73
2023/07/27 05:37:23;;;;;;;16.15;14.75;;;12.00;89.60;;;;;;5106692;28;20035;-73
2023/07/27 05:39:49;;;;;;;16.70;14.85;;;12.00;87.20;;;;;;5108806;28;20028;-74
2023/07/27 05:42:14;;;;;;;19.55;15.30;;;12.10;88.50;;;;;;5088936;28;20106;-73
2023/07/27 05:44:40;;;;;;;20.83;15.38;;;12.10;87.60;;;;;;5104857;28;20489;-76
2023/07/27 05:47:06;;;;;;;16.80;15.07;;;12.20;88.90;;;;;;5102769;28;20046;-74
2023/07/27 05:49:32;;;;;;;15.90;14.27;;;12.20;87.80;;;;;;5086647;28;20062;-73
2023/07/27 05:51:58;;;;;;;16.95;15.35;;;12.20;88.30;;;;;;5103796;28;20039;-74
2023/07/27 05:54:23;;;;;;;16.20;14.77;;;12.20;89.70;;;;;;5103681;28;20433;-74
2023/07/27 05:56:49;;;;;;;15.93;14.32;;;12.30;89.50;;;;;;5103931;28;20789;-73
2023/07/27 05:59:15;;;;;;;14.75;13.75;;;12.50;89.10;;;;;;5087481;28;20088;-78
2023/07/27 06:01:41;;;;;;;14.48;13.68;;;12.70;87.00;;;;;;5101767;28;20043;-77
2023/07/27 06:04:06;;;;;;;13.85;12.90;;;12.70;86.50;;;;;;5085711;28;20024;-76
2023/07/27 06:06:32;;;;;;;13.75;12.85;;;12.90;83.20;;;;;;5098504;28;20032;-81
2023/07/27 06:08:58;;;;;;;14.48;13.70;;;12.90;83.00;;;;;;5107233;28;20039;-78
2023/07/27 06:11:24;;;;;;;15.13;14.30;;;12.90;80.80;;;;;;5104745;28;20040;-78
2023/07/27 06:13:49;;;;;;;13.77;12.70;;;13.10;79.60;;;;;;5108508;28;20043;-80
2023/07/27 06:16:16;;;;;;;14.25;13.45;;;13.30;81.20;;;;;;5107499;28;20139;-77
2023/07/27 06:18:42;;;;;;;13.70;12.90;;;13.40;78.80;;;;;;5106792;28;20030;-81
2023/07/27 06:21:07;;;;;;;13.57;12.85;;;13.50;79.90;;;;;;5106823;28;20027;-78
2023/07/27 06:23:33;;;;;;;13.35;12.55;;;13.70;80.10;;;;;;5105509;28;20034;-78
2023/07/27 06:25:59;;;;;;;14.50;13.70;;;13.90;80.00;;;;;;5088280;28;20101;-80
2023/07/27 06:28:24;;;;;;;13.90;12.90;;;13.90;79.10;;;;;;5106856;28;20032;-78
2023/07/27 06:30:50;;;;;;;14.98;13.85;;;13.90;80.70;;;;;;5087638;28;20044;-76
2023/07/27 06:33:16;;;;;;;14.57;13.27;;;13.90;78.90;;;;;;5088410;28;20031;-77
2023/07/27 06:35:42;;;;;;;17.02;15.00;;;14.10;80.40;;;;;;5106146;28;20024;-78
2023/07/27 06:38:08;;;;;;;16.23;14.50;;;14.00;77.50;;;;;;5105885;28;20036;-78
2023/07/27 06:40:33;;;;;;;15.02;13.75;;;14.10;76.10;;;;;;5090227;28;20036;-78
2023/07/27 06:42:59;;;;;;;21.10;15.07;;;14.30;78.30;;;;;;5104478;28;20062;-79
2023/07/27 06:45:25;;;;;;;15.32;13.68;;;14.30;77.40;;;;;;5104021;28;20047;-80
2023/07/27 06:47:51;;;;;;;15.32;13.57;;;14.40;75.10;;;;;;5101828;28;20032;-82
2023/07/27 06:50:17;;;;;;;19.25;15.77;;;14.50;74.80;;;;;;5084607;28;20138;-78
2023/07/27 06:52:42;;;;;;;23.70;13.95;;;14.50;73.30;;;;;;5107087;28;20114;-77
2023/07/27 06:55:08;;;;;;;18.10;13.40;;;14.40;73.50;;;;;;5107275;28;20417;-78
2023/07/27 06:57:34;;;;;;;17.35;15.95;;;14.40;73.90;;;;;;5090575;28;20081;-77
2023/07/27 07:00:00;;;;;;;14.98;14.02;;;14.50;72.70;;;;;;5108108;28;20027;-77
2023/07/27 07:02:26;;;;;;;14.93;13.10;;;14.40;73.40;;;;;;5107050;28;20075;-79
2023/07/27 07:04:52;;;;;;;17.25;13.02;;;14.60;72.80;;;;;;5107567;28;20058;-77
2023/07/27 07:07:18;;;;;;;14.32;13.23;;;14.70;74.80;;;;;;5088267;28;20090;-80
2023/07/27 07:09:44;;;;;;;13.95;13.05;;;14.90;74.20;;;;;;5105361;28;20028;-77
2023/07/27 07:12:09;;;;;;;13.07;12.38;;;15.20;74.10;;;;;;5104740;28;20107;-79
2023/07/27 07:14:35;;;;;;;13.70;12.80;;;15.30;75.30;;;;;;5103646;28;20047;-79
2023/07/27 07:17:01;;;;;;;14.65;13.75;;;15.20;72.60;;;;;;5083657;28;20054;-77
2023/07/27 07:19:27;;;;;;;14.43;13.30;;;15.10;72.00;;;;;;5106183;28;20032;-77
2023/07/27 07:21:53;;;;;;;13.75;12.48;;;14.90;72.50;;;;;;5103794;28;20085;-77
2023/07/27 07:24:19;;;;;;;13.55;12.75;;;15.00;73.30;;;;;;5082186;28;20078;-77
2023/07/27 07:26:45;;;;;;;14.23;13.38;;;14.90;73.30;;;;;;5107899;28;20089;-77
2023/07/27 07:29:12;;;;;;;13.23;12.52;;;14.70;73.40;;;;;;5086791;28;20482;-78
2023/07/27 07:31:38;;;;;;;15.15;14.35;;;14.70;74.70;;;;;;5110892;28;20065;-77
2023/07/27 07:34:04;;;;;;;13.40;12.63;;;14.50;74.40;;;;;;5110195;27;20030;-78
2023/07/27 07:36:29;;;;;;;13.25;12.57;;;14.40;76.20;;;;;;5091649;28;20119;-77
2023/07/27 07:38:55;;;;;;;13.65;12.85;;;14.40;76.50;;;;;;5110823;28;20030;-77
2023/07/27 07:41:22;;;;;;;13.27;12.02;;;14.50;76.30;;;;;;5092886;28;20389;-77
2023/07/27 07:43:48;;;;;;;13.20;12.40;;;14.50;78.10;;;;;;5110592;28;20059;-77
2023/07/27 07:46:14;;;;;;;13.73;12.82;;;14.60;77.70;;;;;;5093834;28;20474;-77
2023/07/27 07:48:39;;;;;;;13.20;12.40;;;14.60;77.40;;;;;;5108978;28;20038;-77
2023/07/27 07:51:12;;;;;;;20.85;19.08;;;14.50;77.60;;;;;;5111417;28;20031;-78
2023/07/27 07:53:38;;;;;;;13.98;13.07;;;14.40;76.90;;;;;;5110218;28;20028;-77
2023/07/27 07:56:05;;;;;;;13.52;12.73;;;14.30;78.30;;;;;;5086445;28;20104;-77
2023/07/27 07:58:31;;;;;;;13.88;13.00;;;14.30;77.50;;;;;;5109019;28;20027;-77
2023/07/27 08:00:56;;;;;;;13.68;12.90;;;14.30;77.00;;;;;;5108758;28;20035;-78
2023/07/27 08:03:23;;;;;;;13.15;12.35;;;14.30;76.30;;;;;;5102641;28;20472;-77
2023/07/27 08:05:48;;;;;;;14.60;13.70;;;14.40;76.50;;;;;;5089587;28;20610;-77
2023/07/27 08:08:14;;;;;;;12.55;11.85;;;14.30;76.50;;;;;;5105769;28;20015;-77
2023/07/27 08:10:40;;;;;;;13.55;12.75;;;14.40;76.20;;;;;;5110121;28;20050;-78
2023/07/27 08:13:06;;;;;;;13.73;12.88;;;14.40;76.40;;;;;;5104016;28;20652;-77
2023/07/27 08:15:31;;;;;;;12.95;12.25;;;14.40;77.40;;;;;;5109335;28;20402;-78
2023/07/27 08:17:57;;;;;;;13.30;12.38;;;14.50;77.50;;;;;;5092140;28;20038;-79
2023/07/27 08:20:23;;;;;;;13.75;12.75;;;14.40;77.30;;;;;;5091257;28;20039;-77
2023/07/27 08:22:48;;;;;;;14.32;13.43;;;14.50;79.00;;;;;;5106139;28;20028;-77
2023/07/27 08:25:16;;;;;;;14.30;13.25;;;14.50;79.60;;;;;;5092803;28;20512;-77
2023/07/27 08:27:42;;;;;;;14.00;13.10;;;14.40;80.00;;;;;;5087648;28;20036;-77
2023/07/27 08:30:08;;;;;;;14.43;13.52;;;14.50;80.80;;;;;;5106376;28;20055;-77
2023/07/27 08:32:34;;;;;;;14.32;13.27;;;14.50;81.10;;;;;;5104125;28;20019;-77
2023/07/27 08:35:00;;;;;;;13.68;12.80;;;14.60;81.40;;;;;;5106492;28;20069;-78
2023/07/27 08:37:25;;;;;;;14.98;13.90;;;14.80;79.30;;;;;;5109541;28;20392;-77
2023/07/27 08:39:51;;;;;;;13.98;13.27;;;15.00;80.30;;;;;;5092420;28;20031;-77
2023/07/27 08:42:18;;;;;;;13.90;13.10;;;15.20;78.50;;;;;;5089110;28;20586;-77
2023/07/27 08:44:45;;;;;;;13.88;13.02;;;15.40;79.00;;;;;;5103198;28;20106;-77
2023/07/27 08:47:11;;;;;;;13.45;12.65;;;15.70;75.70;;;;;;5106662;28;20028;-77
2023/07/27 08:49:38;;;;;;;14.18;13.38;;;16.00;75.80;;;;;;5106844;28;20032;-78
2023/07/27 08:52:04;;;;;;;14.48;13.48;;;16.20;75.40;;;;;;5105906;28;20111;-78
2023/07/27 08:54:30;;;;;;;14.68;13.43;;;16.40;73.00;;;;;;5104861;28;20032;-78
2023/07/27 08:56:55;;;;;;;13.88;13.00;;;16.60;72.30;;;;;;5108577;28;20055;-78
2023/07/27 08:59:24;;;;;;;14.95;13.82;;;16.40;71.50;;;;;;5104412;28;20020;-77
2023/07/27 09:01:50;;;;;;;17.48;15.98;;;16.30;71.70;;;;;;5089668;28;20036;-77
2023/07/27 09:04:16;;;;;;;15.35;14.23;;;16.10;73.90;;;;;;5106696;27;20028;-77
2023/07/27 09:06:49;;;;;;;17.38;15.65;;;16.50;73.00;;;;;;5090764;28;20077;-77
2023/07/27 09:09:23;;;;;;;15.07;13.73;;;16.50;70.50;;;;;;5109073;28;20039;-77
2023/07/27 09:11:49;;;;;;;14.35;13.10;;;16.50;70.80;;;;;;5090745;28;20055;-77
2023/07/27 09:14:18;;;;;;;15.48;14.18;;;16.60;70.60;;;;;;5106715;28;20055;-77
2023/07/27 09:16:44;;;;;;;14.77;13.85;;;16.40;71.50;;;;;;5086215;28;20158;-77
2023/07/27 09:19:11;;;;;;;15.90;14.70;;;16.30;74.70;;;;;;5089139;28;20398;-77
2023/07/27 09:21:48;;;;;;;13.75;12.95;;;16.20;73.40;;;;;;5105785;28;20042;-77
2023/07/27 09:24:16;;;;;;;13.60;12.80;;;16.20;71.90;;;;;;5082269;28;20031;-77
2023/07/27 09:26:49;;;;;;;14.07;13.27;;;16.40;71.10;;;;;;5103195;28;20024;-77
2023/07/27 09:29:17;;;;;;;14.13;13.32;;;16.50;70.50;;;;;;5105524;28;20089;-77
2023/07/27 09:31:48;;;;;;;14.88;13.90;;;16.40;70.40;;;;;;5107240;28;20111;-76
2023/07/27 09:34:14;;;;;;;14.02;13.23;;;16.40;70.10;;;;;;5107868;28;20039;-77
2023/07/27 09:36:42;;;;;;;14.38;13.38;;;16.50;72.20;;;;;;5105526;28;20085;-75
2023/07/27 09:39:09;;;;;;;14.10;13.13;;;16.80;68.70;;;;;;5089561;28;20523;-77
2023/07/27 09:41:35;;;;;;;13.40;12.43;;;16.60;69.10;;;;;;5102202;28;20039;-75
2023/07/27 09:44:02;;;;;;;13.40;12.57;;;16.50;69.50;;;;;;5090534;28;20448;-77
2023/07/27 09:46:29;;;;;;;14.70;13.90;;;16.50;69.00;;;;;;5103591;28;20066;-79
2023/07/27 09:49:00;;;;;;;13.75;12.95;;;16.30;69.50;;;;;;5105980;28;20047;-77
2023/07/27 09:51:27;;;;;;;;;;;16.50;70.00;;;;;;5106780;28;20036;-77
2023/07/27 09:53:54;;;;;;;14.90;14.00;;;16.60;69.00;;;;;;5105351;28;19912;-77
2023/07/27 09:56:20;;;;;;;24.33;22.52;;;16.70;67.40;;;;;;5088901;28;20093;-77
2023/07/27 09:58:47;;;;;;;13.60;12.80;;;16.90;67.90;;;;;;5106333;28;20062;-80
2023/07/27 10:01:12;;;;;;;13.25;12.55;;;17.00;68.20;;;;;;5089919;28;20031;-77
2023/07/27 10:03:38;;;;;;;13.55;12.65;;;17.20;67.30;;;;;;5103160;28;20027;-75
2023/07/27 10:06:05;;;;;;;13.05;12.35;;;17.50;68.40;;;;;;5089901;28;20466;-76
2023/07/27 10:08:34;;;;;;;13.68;12.77;;;17.50;66.70;;;;;;5100457;28;20351;-81
2023/07/27 10:11:03;;;;;;;13.10;12.30;;;17.40;67.70;;;;;;5089746;28;20057;-77
2023/07/27 10:13:29;;;;;;;14.10;13.10;;;17.30;67.90;;;;;;5104522;28;20049;-77
2023/07/27 10:15:56;;;;;;;13.68;12.77;;;17.20;67.00;;;;;;5104968;28;20394;-77
2023/07/27 10:18:27;;;;;;;14.30;13.50;;;17.30;67.00;;;;;;5088819;28;20036;-77
2023/07/27 10:21:21;;;;;;;15.48;14.68;;;17.00;65.70;;;;;;5106391;28;20039;-77
2023/07/27 10:23:58;;;;;;;16.15;15.25;;;17.30;65.20;;;;;;5106827;28;20059;-79
2023/07/27 10:26:46;;;;;;;18.15;17.05;;;17.40;63.60;;;;;;5105645;28;20055;-79
2023/07/27 10:29:28;;;;;;;15.32;14.45;;;17.40;62.00;;;;;;5088498;28;20034;-77
2023/07/27 10:32:07;;;;;;;22.33;20.35;;;17.70;62.50;;;;;;5104144;28;20035;-77
2023/07/27 10:34:37;;;;;;;16.38;15.48;;;17.60;64.20;;;;;;5103043;28;20096;-78
2023/07/27 10:37:04;;;;;;;15.02;14.20;;;17.50;62.20;;;;;;5083340;28;20521;-77
2023/07/27 10:39:34;;;;;;;14.63;13.88;;;17.80;62.70;;;;;;5099052;28;20595;-77
2023/07/27 10:42:02;;;;;;;;;;;18.00;62.40;;;;;;5101908;28;20039;-74
2023/07/27 10:45:05;;;;;;;14.73;13.93;;;18.10;64.10;;;;;;5102734;28;19919;-77
2023/07/27 10:47:36;;;;;;;16.15;15.15;;;18.20;63.30;;;;;;5056414;28;20431;-79
2023/07/27 10:50:03;;;;;;;14.35;13.48;;;18.20;61.30;;;;;;5082973;28;20035;-75
2023/07/27 10:52:36;;;;;;;15.73;14.82;;;18.80;64.50;;;;;;5106974;28;20453;-75
2023/07/27 10:55:03;;;;;;;15.45;14.65;;;18.80;61.20;;;;;;5106559;28;20449;-75
2023/07/27 10:57:32;;;;;;;15.18;14.18;;;19.00;61.10;;;;;;5086960;28;20031;-74
2023/07/27 10:59:58;;;;;;;14.90;14.10;;;19.00;62.60;;;;;;5104782;28;20490;-75
2023/07/27 11:02:29;;;;;;;14.52;13.73;;;19.00;58.90;;;;;;5087994;28;20036;-75
2023/07/27 11:05:06;;;;;;;32.45;29.90;;;18.90;63.40;;;;;;5103808;28;20024;-74
2023/07/27 11:07:33;;;;;;;14.88;14.07;;;18.50;59.80;;;;;;5076435;28;20379;-75
2023/07/27 11:10:08;;;;;;;15.30;14.32;;;18.60;60.80;;;;;;5088364;28;20432;-74
2023/07/27 11:12:51;;;;;;;15.45;14.60;;;18.60;62.80;;;;;;5105006;28;20138;-75
2023/07/27 11:15:26;;;;;;;14.63;13.80;;;18.50;61.60;;;;;;5093247;28;20035;-77
2023/07/27 11:17:55;;;;;;;16.48;15.20;;;18.70;63.90;;;;;;5087717;28;20027;-76
2023/07/27 11:20:23;;;;;;;15.82;14.93;;;18.30;60.80;;;;;;5088053;28;20557;-76
2023/07/27 11:22:49;;;;;;;16.00;14.80;;;18.40;64.10;;;;;;5106799;28;20028;-76
2023/07/27 11:25:15;;;;;;;16.25;15.13;;;18.60;62.00;;;;;;5107560;28;20019;-76
2023/07/27 11:27:41;;;;;;;16.13;14.80;;;18.90;63.70;;;;;;5110846;27;20520;-75
2023/07/27 11:30:12;;;;;;;16.23;15.20;;;19.00;61.40;;;;;;5089301;28;20496;-76
2023/07/27 11:32:38;;;;;;;50.72;45.85;;;19.10;61.40;;;;;;5105677;28;20033;-76
2023/07/27 11:35:04;;;;;;;16.88;15.75;;;19.40;59.60;;;;;;5110788;28;20032;-76
2023/07/27 11:37:31;;;;;;;16.60;15.60;;;19.60;60.80;;;;;;5110446;28;20922;-75
2023/07/27 11:39:57;;;;;;;16.23;15.32;;;19.80;59.50;;;;;;5108983;28;20124;-76
2023/07/27 11:42:34;;;;;;;16.15;15.27;;;19.80;60.20;;;;;;5108177;28;20077;-76
2023/07/27 11:45:00;;;;;;;15.43;14.63;;;19.70;61.20;;;;;;5114853;28;20019;-76
2023/07/27 11:47:26;;;;;;;16.02;15.23;;;19.50;57.90;;;;;;5125518;28;20031;-78
2023/07/27 11:49:53;;;;;;;16.25;15.38;;;19.60;58.60;;;;;;5112615;27;20034;-76
2023/07/27 11:52:20;;;;;;;15.20;14.50;;;19.60;60.00;;;;;;5089258;28;20036;-75
2023/07/27 11:54:56;;;;;;;15.52;14.73;;;19.70;58.40;;;;;;5105834;28;20081;-76
2023/07/27 11:57:27;;;;;;;16.50;15.50;;;19.80;61.50;;;;;;5085671;28;20478;-76
2023/07/27 12:00:13;;;;;;;14.95;14.18;;;19.70;57.00;;;;;;5092506;28;20047;-75
2023/07/27 12:02:40;;;;;;;16.02;15.13;;;19.70;57.40;;;;;;5105149;28;20067;-76
2023/07/27 12:05:06;;;;;;;16.13;15.23;;;19.50;59.90;;;;;;5105258;28;20030;-76
2023/07/27 12:07:34;;;;;;;16.33;15.18;;;19.40;58.80;;;;;;5085748;28;20103;-76
2023/07/27 12:10:00;;;;;;;16.77;15.95;;;19.50;61.70;;;;;;5109614;28;20035;-77
2023/07/27 12:12:25;;;;;;;28.98;27.35;;;19.50;59.70;;;;;;5089858;28;20114;-77
2023/07/27 12:14:54;;;;;;;18.58;17.67;;;19.30;58.50;;;;;;5090998;28;20126;-76
2023/07/27 12:17:23;;;;;;;16.58;15.68;;;19.40;58.50;;;;;;5107030;28;20046;-76
2023/07/27 12:19:48;;;;;;;35.72;32.92;;;19.50;59.40;;;;;;5107347;28;20040;-76
2023/07/27 12:22:14;;;;;;;16.42;15.63;;;20.00;57.90;;;;;;5107113;28;20054;-76
2023/07/27 12:24:46;;;;;;;30.00;27.45;;;19.80;57.40;;;;;;5108842;28;20046;-76
2023/07/27 12:27:12;;;;;;;17.80;16.95;;;20.00;57.10;;;;;;5106185;28;20024;-81
2023/07/27 12:29:38;;;;;;;16.65;15.85;;;20.00;56.90;;;;;;5086565;28;20028;-77
2023/07/27 12:32:04;;;;;;;16.17;15.27;;;20.10;58.20;;;;;;5101679;28;20551;-76